Pagina principale
METAR-TAF:

METAR-TAF

Aeroporti :

Cagliari, Italia

Aeroporto di Cagliari-Elmas

latitudine: 39-15N, longitudine: 009-04E, altezza: 4 m

Osservazione

Il bollettino è stato emesso 20 minuti fa, alle 07:50 UTC
Vento 5 kt da sud/sud-est, variando fra est/sud-est e sud
Temperature 23°C
Umidità 44%
Pressione 1019 hPa
Visibilità 10 km o più
nessuna nube inferiore a 1500 m e nessun cumulonembo

METAR: LIEE 270750Z 15005KT 110V180 CAVOK 23/10 Q1019

Ora: 10:10 (08:10 UTC)

Previsione

Il bollettino è stato emesso 3 ore e 10 minuti fa, alle 05:00 UTC
Previsione valida dal 27 alle 06 UTC al 28 alle 06 UTC
Vento 5 kt da direzioni variabili
Visibilità 10 km o più
nessuna nube inferiore a 1500 m e nessun cumulonembo
Evoluzione graduale
dal 27 alle 08 UTC al 27 alle 10 UTC
Vento 12 kt da sud/sud-est
Evoluzione graduale
dal 27 alle 18 UTC al 27 alle 20 UTC
Vento 5 kt da direzioni variabili

TAF: LIEE 270500Z 2706/2806 VRB05KT CAVOK BECMG 2708/2710 15012KT BECMG 2718/2720 VRB05KT

Osservazioni e previsioni meteorologiche di più di 4000 aeroporti (messaggi METAR e TAF).

Le stazioni disponibili sono rappresentate dai dischi gialli e rossi sulla carta.

Puntare il mouse per vedere il nome della stazione.

Clicca sopra per visualizzare le osservazioni e previsioni meteorologiche.

Per cambiare la mappa : fare clic sui pulsanti verdi con una croce nera per ingrandire, il pulsante verde con un trattino per diminuire, o sulla freccia verde per le mappe adiacenti.


METAR-TAF: